Time;durP1;ratioP1;P1;durP2;ratioP2;P2;SDS_P1;SDS_P2;PMS_P1;PMS_P2;Temp;Humidity;BMP_temperature;BMP_pressure;BME280_temperature;BME280_humidity;BME280_pressure;Samples;Min_cycle;Max_cycle;Signal;HPM_P1;HPM_P2
2023/11/15 00:02:14;;;;;;;0.10;0.10;;;10.90;99.90;;;;;;5058287;28;20185;-81
2023/11/15 00:04:40;;;;;;;0.10;0.10;;;10.90;99.90;;;;;;5061922;28;20192;-77
2023/11/15 00:07:06;;;;;;;0.10;0.10;;;10.90;99.90;;;;;;5058832;28;20564;-78
2023/11/15 00:09:33;;;;;;;0.03;0.03;;;10.90;99.90;;;;;;5060275;28;20181;-77
2023/11/15 00:11:59;;;;;;;0.10;0.10;;;10.90;99.90;;;;;;5057126;28;20184;-77
2023/11/15 00:14:25;;;;;;;0.10;0.10;;;11.00;99.90;;;;;;5056975;28;20208;-78
2023/11/15 00:16:51;;;;;;;0.10;0.10;;;11.00;99.90;;;;;;5057942;28;20728;-78
2023/11/15 00:19:17;;;;;;;0.10;0.10;;;11.00;99.90;;;;;;5058348;28;20228;-78
2023/11/15 00:21:43;;;;;;;0.10;0.10;;;11.00;99.90;;;;;;5058018;28;20275;-77
2023/11/15 00:24:09;;;;;;;0.10;0.10;;;11.00;99.90;;;;;;5060029;28;21079;-78
2023/11/15 00:26:36;;;;;;;0.10;0.10;;;11.00;99.90;;;;;;5059354;28;20204;-78
2023/11/15 00:29:03;;;;;;;0.10;0.10;;;11.10;99.90;;;;;;5056957;28;20187;-79
2023/11/15 00:31:29;;;;;;;0.10;0.10;;;11.10;99.90;;;;;;5055915;28;20716;-78
2023/11/15 00:33:55;;;;;;;0.10;0.10;;;11.10;99.90;;;;;;5057469;28;20277;-78
2023/11/15 00:36:20;;;;;;;0.10;0.10;;;11.10;99.90;;;;;;5056721;28;20219;-78
2023/11/15 00:38:46;;;;;;;0.10;0.10;;;11.10;99.90;;;;;;5058685;28;20215;-78
2023/11/15 00:41:12;;;;;;;0.10;0.10;;;11.10;99.90;;;;;;5057838;28;20192;-78
2023/11/15 00:43:38;;;;;;;0.10;0.10;;;11.10;99.90;;;;;;5058510;28;20657;-78
2023/11/15 00:46:04;;;;;;;0.10;0.10;;;11.20;99.90;;;;;;5057886;28;20912;-77
2023/11/15 00:48:29;;;;;;;0.10;0.10;;;11.20;99.90;;;;;;5057894;28;20192;-77
2023/11/15 00:50:55;;;;;;;0.10;0.10;;;11.20;99.90;;;;;;5058424;28;20186;-77
2023/11/15 00:53:21;;;;;;;0.00;0.00;;;11.20;99.90;;;;;;5056146;28;20185;-78
2023/11/15 00:55:47;;;;;;;0.10;0.10;;;11.20;99.90;;;;;;5058949;28;20244;-78
2023/11/15 00:58:14;;;;;;;0.00;0.00;;;11.30;99.90;;;;;;5056318;28;20180;-78
2023/11/15 01:00:44;;;;;;;0.10;0.10;;;11.20;99.90;;;;;;5056937;28;20180;-77
2023/11/15 01:03:15;;;;;;;0.10;0.10;;;11.30;99.90;;;;;;5060100;28;20170;-78
2023/11/15 01:05:41;;;;;;;0.00;0.00;;;11.30;99.90;;;;;;5057114;28;20181;-78
2023/11/15 01:08:06;;;;;;;0.10;0.10;;;11.30;99.90;;;;;;5060275;28;20176;-78
2023/11/15 01:10:32;;;;;;;0.10;0.10;;;11.20;99.90;;;;;;5061969;28;20192;-78
2023/11/15 01:12:58;;;;;;;0.10;0.10;;;11.20;99.90;;;;;;5061890;28;20284;-78
2023/11/15 01:15:24;;;;;;;0.10;0.10;;;11.20;99.90;;;;;;5062459;28;20224;-78
2023/11/15 01:17:50;;;;;;;0.10;0.10;;;11.10;99.90;;;;;;5061741;28;20684;-78
2023/11/15 01:20:16;;;;;;;0.10;0.10;;;11.10;99.90;;;;;;5061407;28;20596;-78
2023/11/15 01:22:42;;;;;;;0.10;0.10;;;11.10;99.90;;;;;;5062807;28;20187;-78
2023/11/15 01:25:08;;;;;;;0.10;0.10;;;11.10;99.90;;;;;;5061250;28;20181;-78
2023/11/15 01:27:34;;;;;;;0.10;0.10;;;11.10;99.90;;;;;;5062818;28;20217;-77
2023/11/15 01:29:59;;;;;;;0.10;0.10;;;11.20;99.90;;;;;;5060750;28;20250;-77
2023/11/15 01:32:25;;;;;;;0.10;0.10;;;11.10;99.90;;;;;;5061357;28;20673;-79
2023/11/15 01:34:50;;;;;;;0.10;0.10;;;11.10;99.90;;;;;;5061605;28;20284;-78
2023/11/15 01:37:17;;;;;;;0.10;0.10;;;11.10;99.90;;;;;;5059005;28;20243;-78
2023/11/15 01:39:42;;;;;;;0.10;0.10;;;11.10;99.90;;;;;;5059549;28;20185;-78
2023/11/15 01:42:08;;;;;;;0.10;0.10;;;11.10;99.90;;;;;;5061631;28;20181;-78
2023/11/15 01:44:34;;;;;;;0.10;0.10;;;11.10;99.90;;;;;;5060811;28;20191;-78
2023/11/15 01:47:00;;;;;;;0.10;0.10;;;11.00;99.90;;;;;;5060829;28;20696;-77
2023/11/15 01:49:26;;;;;;;0.10;0.10;;;11.00;99.90;;;;;;5061503;28;20173;-78
2023/11/15 01:51:52;;;;;;;0.07;0.07;;;11.00;99.90;;;;;;5062006;28;20552;-78
2023/11/15 01:54:20;;;;;;;0.10;0.10;;;10.90;99.90;;;;;;5060224;28;20287;-78
2023/11/15 01:56:45;;;;;;;0.10;0.10;;;11.00;99.90;;;;;;5061049;28;20200;-78
2023/11/15 01:59:12;;;;;;;0.10;0.10;;;10.90;99.90;;;;;;5059561;28;20182;-77
2023/11/15 02:01:40;;;;;;;0.10;0.10;;;10.90;99.90;;;;;;5060509;28;20760;-77
2023/11/15 02:04:05;;;;;;;0.10;0.10;;;10.90;99.90;;;;;;5059929;28;20260;-77
2023/11/15 02:06:32;;;;;;;0.10;0.10;;;10.90;99.90;;;;;;5058592;28;20336;-77
2023/11/15 02:08:59;;;;;;;0.10;0.10;;;10.90;99.90;;;;;;5060503;28;20187;-77
2023/11/15 02:11:25;;;;;;;0.10;0.10;;;10.90;99.90;;;;;;5060230;28;20247;-77
2023/11/15 02:13:51;;;;;;;0.10;0.10;;;10.90;99.90;;;;;;5059829;28;20615;-78
2023/11/15 02:16:17;;;;;;;0.10;0.10;;;10.90;99.90;;;;;;5059235;28;20214;-78
2023/11/15 02:18:43;;;;;;;0.10;0.10;;;10.90;99.90;;;;;;5058162;28;20680;-78
2023/11/15 02:21:09;;;;;;;0.10;0.10;;;10.80;99.90;;;;;;5060253;28;20189;-77
2023/11/15 02:23:54;;;;;;;0.20;0.20;;;10.80;99.90;;;;;;5060491;28;20249;-77
2023/11/15 02:26:20;;;;;;;0.10;0.10;;;10.80;99.90;;;;;;5060528;28;20250;-77
2023/11/15 02:28:46;;;;;;;0.10;0.10;;;10.70;99.90;;;;;;5060630;28;21204;-77
2023/11/15 02:31:11;;;;;;;0.10;0.10;;;10.70;99.90;;;;;;5061884;28;20178;-78
2023/11/15 02:33:37;;;;;;;0.00;0.00;;;10.70;99.90;;;;;;5060605;28;20549;-78
2023/11/15 02:36:04;;;;;;;0.10;0.10;;;10.80;99.90;;;;;;5060674;28;20688;-77
2023/11/15 02:38:29;;;;;;;0.10;0.10;;;10.80;99.90;;;;;;5059123;28;20192;-77
2023/11/15 02:40:55;;;;;;;0.10;0.10;;;10.80;99.90;;;;;;5060756;28;20177;-78
2023/11/15 02:43:21;;;;;;;0.10;0.10;;;10.80;99.90;;;;;;5060238;28;20177;-78
2023/11/15 02:45:47;;;;;;;0.10;0.10;;;10.80;99.90;;;;;;5056516;28;20545;-77
2023/11/15 02:48:12;;;;;;;0.10;0.10;;;10.80;99.90;;;;;;5061039;28;20232;-78
2023/11/15 02:50:38;;;;;;;0.10;0.10;;;10.70;99.90;;;;;;5060946;28;20196;-78
2023/11/15 02:53:03;;;;;;;0.10;0.10;;;10.80;99.90;;;;;;5059561;28;20705;-77
2023/11/15 02:55:30;;;;;;;0.10;0.10;;;10.80;99.90;;;;;;5060457;28;20256;-77
2023/11/15 02:57:56;;;;;;;0.10;0.10;;;10.70;99.90;;;;;;5059115;28;20530;-78
2023/11/15 03:00:21;;;;;;;0.10;0.10;;;10.80;99.90;;;;;;5059036;28;20185;-78
2023/11/15 03:02:49;;;;;;;0.10;0.10;;;10.80;99.90;;;;;;5057802;28;20193;-77
2023/11/15 03:05:14;;;;;;;0.10;0.10;;;10.90;99.90;;;;;;5056365;28;20605;-77
2023/11/15 03:07:40;;;;;;;0.10;0.10;;;10.90;99.90;;;;;;5058894;28;20205;-77
2023/11/15 03:10:08;;;;;;;0.10;0.10;;;10.90;99.90;;;;;;5059168;28;20203;-78
2023/11/15 03:12:34;;;;;;;0.10;0.10;;;10.90;99.90;;;;;;5060040;28;20331;-77
2023/11/15 03:14:59;;;;;;;0.10;0.10;;;10.80;99.90;;;;;;5058805;28;20743;-78
2023/11/15 03:17:25;;;;;;;0.10;0.10;;;10.90;99.90;;;;;;5059749;28;20202;-78
2023/11/15 03:19:51;;;;;;;0.00;0.00;;;10.90;99.90;;;;;;5057907;28;20181;-80
2023/11/15 03:22:18;;;;;;;0.10;0.10;;;10.80;99.90;;;;;;5059322;28;20261;-80
2023/11/15 03:24:45;;;;;;;0.10;0.10;;;10.90;99.90;;;;;;5058333;28;20192;-80
2023/11/15 03:27:12;;;;;;;0.10;0.10;;;11.00;99.90;;;;;;5060112;28;20193;-78
2023/11/15 03:29:37;;;;;;;0.10;0.10;;;11.00;99.90;;;;;;5060398;28;20192;-78
2023/11/15 03:32:03;;;;;;;0.10;0.10;;;11.10;99.90;;;;;;5060784;28;20633;-78
2023/11/15 03:34:29;;;;;;;0.10;0.10;;;11.10;99.90;;;;;;5059812;28;20201;-77
2023/11/15 03:36:55;;;;;;;0.10;0.10;;;11.10;99.90;;;;;;5059310;28;20232;-78
2023/11/15 03:39:20;;;;;;;0.10;0.10;;;11.10;99.90;;;;;;5057602;28;20239;-78
2023/11/15 03:41:46;;;;;;;0.10;0.10;;;11.10;99.90;;;;;;5060707;28;20177;-78
2023/11/15 03:44:12;;;;;;;0.10;0.10;;;11.20;99.90;;;;;;5057254;28;20206;-78
2023/11/15 03:46:38;;;;;;;0.10;0.10;;;11.20;99.90;;;;;;5058847;28;20275;-77
2023/11/15 03:49:03;;;;;;;0.10;0.10;;;11.20;99.90;;;;;;5059298;28;20192;-78
2023/11/15 03:51:29;;;;;;;0.10;0.10;;;11.10;99.90;;;;;;5057936;28;20722;-78
2023/11/15 03:53:54;;;;;;;0.10;0.10;;;11.10;99.90;;;;;;5058004;28;21349;-78
2023/11/15 03:56:20;;;;;;;0.10;0.10;;;11.10;99.90;;;;;;5058544;28;20244;-78
2023/11/15 03:58:45;;;;;;;0.10;0.10;;;11.00;99.90;;;;;;5059073;28;20253;-78
2023/11/15 04:01:11;;;;;;;0.10;0.10;;;11.00;99.90;;;;;;5059172;28;20231;-78
2023/11/15 04:03:38;;;;;;;0.10;0.10;;;11.00;99.90;;;;;;5058386;28;20351;-80
2023/11/15 04:06:05;;;;;;;0.10;0.10;;;11.00;99.90;;;;;;5055707;28;20197;-78
2023/11/15 04:08:30;;;;;;;0.10;0.10;;;11.00;99.90;;;;;;5057763;28;20197;-77
2023/11/15 04:10:57;;;;;;;0.10;0.10;;;11.10;99.90;;;;;;5058722;28;20192;-78
2023/11/15 04:13:23;;;;;;;0.10;0.10;;;11.00;99.90;;;;;;5056210;28;20193;-78
2023/11/15 04:15:49;;;;;;;0.10;0.10;;;11.00;99.90;;;;;;5057692;28;20217;-78
2023/11/15 04:18:15;;;;;;;0.10;0.10;;;11.00;99.90;;;;;;5057462;28;20185;-78
2023/11/15 04:20:40;;;;;;;0.00;0.00;;;11.00;99.90;;;;;;5057366;28;20192;-78
2023/11/15 04:23:06;;;;;;;0.10;0.10;;;11.00;99.90;;;;;;5057344;28;20657;-78
2023/11/15 04:25:31;;;;;;;0.10;0.10;;;11.00;99.90;;;;;;5056846;28;20181;-78
2023/11/15 04:27:57;;;;;;;0.10;0.10;;;11.00;99.90;;;;;;5056565;28;20668;-78
2023/11/15 04:30:22;;;;;;;0.10;0.10;;;11.10;99.90;;;;;;5055803;28;20188;-78
2023/11/15 04:32:48;;;;;;;0.00;0.00;;;11.00;99.90;;;;;;5054553;28;20188;-78
2023/11/15 04:35:14;;;;;;;0.10;0.10;;;11.00;99.90;;;;;;5057683;28;20220;-78
2023/11/15 04:37:39;;;;;;;0.10;0.10;;;11.00;99.90;;;;;;5057053;28;20304;-78
2023/11/15 04:40:10;;;;;;;0.10;0.10;;;11.10;99.90;;;;;;5058075;28;20243;-79
2023/11/15 04:42:36;;;;;;;0.10;0.10;;;11.10;99.90;;;;;;5058212;28;20729;-78
2023/11/15 04:45:02;;;;;;;0.10;0.10;;;11.10;99.90;;;;;;5062496;28;20192;-78
2023/11/15 04:47:28;;;;;;;0.10;0.10;;;11.00;99.90;;;;;;5063472;28;20188;-78
2023/11/15 04:49:53;;;;;;;0.10;0.10;;;11.00;99.90;;;;;;5059049;28;20200;-78
2023/11/15 04:52:19;;;;;;;0.10;0.10;;;10.90;99.90;;;;;;5060875;28;20207;-78
2023/11/15 04:54:44;;;;;;;0.00;0.00;;;11.00;99.90;;;;;;5061143;28;20270;-78
2023/11/15 04:57:10;;;;;;;0.10;0.10;;;10.90;99.90;;;;;;5061015;28;20201;-78
2023/11/15 04:59:36;;;;;;;0.10;0.10;;;10.90;99.90;;;;;;5062066;28;20679;-78
2023/11/15 05:02:02;;;;;;;0.10;0.10;;;10.90;99.90;;;;;;5060996;28;20679;-78
2023/11/15 05:04:28;;;;;;;0.10;0.10;;;10.90;99.90;;;;;;5062359;28;20182;-77
2023/11/15 05:06:54;;;;;;;0.10;0.10;;;10.80;99.90;;;;;;5060383;28;20208;-78
2023/11/15 05:09:21;;;;;;;0.10;0.10;;;10.80;99.90;;;;;;5062216;28;20322;-78
2023/11/15 05:11:47;;;;;;;0.10;0.10;;;10.80;99.90;;;;;;5064333;28;20263;-78
2023/11/15 05:14:13;;;;;;;0.10;0.10;;;10.80;99.90;;;;;;5060789;28;20800;-77
2023/11/15 05:16:38;;;;;;;0.10;0.10;;;10.80;99.90;;;;;;5060529;28;20239;-77
2023/11/15 05:19:04;;;;;;;0.10;0.10;;;10.80;99.90;;;;;;5061553;28;20186;-77
2023/11/15 05:21:30;;;;;;;0.10;0.10;;;10.80;99.90;;;;;;5058195;28;20319;-77
2023/11/15 05:23:55;;;;;;;0.10;0.10;;;10.70;99.90;;;;;;5059426;28;20273;-78
2023/11/15 05:26:21;;;;;;;0.10;0.10;;;10.70;99.90;;;;;;5058740;28;20209;-77
2023/11/15 05:28:47;;;;;;;0.10;0.10;;;10.70;99.90;;;;;;5062542;28;20200;-77
2023/11/15 05:31:12;;;;;;;0.10;0.10;;;10.70;99.90;;;;;;5060708;28;20553;-77
2023/11/15 05:33:38;;;;;;;0.10;0.10;;;10.80;99.90;;;;;;5059741;28;20181;-77
2023/11/15 05:36:04;;;;;;;0.10;0.10;;;10.80;99.90;;;;;;5060333;28;20701;-77
2023/11/15 05:38:29;;;;;;;0.10;0.10;;;10.90;99.90;;;;;;5061151;28;20177;-78
2023/11/15 05:40:57;;;;;;;0.10;0.10;;;10.90;99.90;;;;;;5059832;28;20181;-77
2023/11/15 05:43:22;;;;;;;0.10;0.10;;;10.90;99.90;;;;;;5056970;28;20191;-77
2023/11/15 05:45:48;;;;;;;0.10;0.10;;;10.90;99.90;;;;;;5060320;28;20185;-77
2023/11/15 05:48:14;;;;;;;0.10;0.10;;;11.00;99.90;;;;;;5061500;28;20177;-78
2023/11/15 05:50:39;;;;;;;0.07;0.07;;;11.00;99.90;;;;;;5055255;28;20235;-77
2023/11/15 05:53:05;;;;;;;0.10;0.10;;;11.00;99.90;;;;;;5059559;28;20559;-77
2023/11/15 05:55:31;;;;;;;0.10;0.10;;;11.00;99.90;;;;;;5059847;28;20290;-77
2023/11/15 05:57:56;;;;;;;0.10;0.10;;;11.00;99.90;;;;;;5060666;28;20217;-78
2023/11/15 06:00:22;;;;;;;0.10;0.10;;;11.10;99.90;;;;;;5059132;28;20726;-77
2023/11/15 06:02:49;;;;;;;0.10;0.10;;;11.10;99.90;;;;;;5060417;28;20181;-77
2023/11/15 06:05:18;;;;;;;0.10;0.10;;;11.10;99.90;;;;;;5059101;28;20225;-77
2023/11/15 06:07:44;;;;;;;0.10;0.10;;;11.10;99.90;;;;;;5061879;28;20572;-77
2023/11/15 06:10:11;;;;;;;0.10;0.10;;;11.10;99.90;;;;;;5057311;28;20554;-77
2023/11/15 06:12:38;;;;;;;0.10;0.10;;;11.10;99.90;;;;;;5058243;28;20197;-77
2023/11/15 06:15:05;;;;;;;0.10;0.10;;;11.10;99.90;;;;;;5058172;28;20765;-77
2023/11/15 06:17:31;;;;;;;0.10;0.10;;;11.10;99.90;;;;;;5057910;28;21168;-77
2023/11/15 06:19:57;;;;;;;0.10;0.10;;;11.10;99.90;;;;;;5056964;28;20181;-77
2023/11/15 06:22:23;;;;;;;0.10;0.10;;;11.10;99.90;;;;;;5055556;28;20269;-78
2023/11/15 06:24:52;;;;;;;0.10;0.10;;;11.10;99.90;;;;;;5060744;28;20275;-78
2023/11/15 06:27:24;;;;;;;0.10;0.10;;;11.10;99.90;;;;;;5057912;28;20212;-78
2023/11/15 06:29:50;;;;;;;0.10;0.10;;;11.10;99.90;;;;;;5073337;28;20189;-78
2023/11/15 06:32:16;;;;;;;0.10;0.10;;;11.00;99.90;;;;;;5054803;28;20202;-78
2023/11/15 06:34:44;;;;;;;0.10;0.10;;;11.00;99.90;;;;;;5056540;28;20213;-78
2023/11/15 06:37:11;;;;;;;0.00;0.00;;;11.00;99.90;;;;;;5056591;28;20205;-78
2023/11/15 06:39:36;;;;;;;0.10;0.10;;;10.90;99.90;;;;;;5058584;28;20181;-78
2023/11/15 06:42:03;;;;;;;0.20;0.20;;;10.90;99.90;;;;;;5057145;28;20603;-78
2023/11/15 06:44:29;;;;;;;0.10;0.10;;;10.80;99.90;;;;;;5056802;28;20178;-78
2023/11/15 06:46:55;;;;;;;0.10;0.10;;;10.80;99.90;;;;;;5057068;28;20281;-79
2023/11/15 06:49:21;;;;;;;0.10;0.10;;;10.70;99.90;;;;;;5055606;28;20193;-79
2023/11/15 06:51:49;;;;;;;0.10;0.10;;;10.70;99.90;;;;;;5057361;28;20198;-78
2023/11/15 06:54:14;;;;;;;0.10;0.10;;;10.70;99.90;;;;;;5058093;28;20186;-79
2023/11/15 06:56:43;;;;;;;0.10;0.10;;;10.70;99.90;;;;;;5058582;28;20223;-79
2023/11/15 06:59:09;;;;;;;0.10;0.10;;;10.70;99.90;;;;;;5058318;28;20190;-79
2023/11/15 07:01:35;;;;;;;0.10;0.10;;;10.70;99.90;;;;;;5060036;28;20224;-78
2023/11/15 07:04:01;;;;;;;0.10;0.10;;;10.80;99.90;;;;;;5058326;28;20234;-78
2023/11/15 07:06:27;;;;;;;0.10;0.10;;;10.80;99.90;;;;;;5059799;28;20209;-78
2023/11/15 07:08:53;;;;;;;0.10;0.10;;;10.90;99.90;;;;;;5057459;28;20856;-78
2023/11/15 07:11:19;;;;;;;0.10;0.10;;;11.10;99.90;;;;;;5058602;28;20315;-78
2023/11/15 07:13:44;;;;;;;0.10;0.10;;;11.10;99.90;;;;;;5059210;28;20257;-79
2023/11/15 07:16:11;;;;;;;0.10;0.10;;;11.20;99.90;;;;;;5058111;28;20785;-79
2023/11/15 07:18:37;;;;;;;0.10;0.10;;;11.20;99.90;;;;;;5061776;28;20196;-78
2023/11/15 07:21:03;;;;;;;0.10;0.10;;;11.20;99.90;;;;;;5057779;28;20211;-79
2023/11/15 07:23:28;;;;;;;0.10;0.10;;;11.20;99.90;;;;;;5064030;28;20186;-78
2023/11/15 07:25:54;;;;;;;0.10;0.10;;;11.10;99.90;;;;;;5069594;28;20234;-79
2023/11/15 07:28:24;;;;;;;0.10;0.10;;;11.10;99.90;;;;;;5070177;28;20186;-78
2023/11/15 07:30:50;;;;;;;0.10;0.10;;;11.00;99.90;;;;;;5065067;28;20192;-78
2023/11/15 07:33:21;;;;;;;0.10;0.10;;;10.90;99.90;;;;;;5057989;28;20657;-78
2023/11/15 07:35:50;;;;;;;0.10;0.10;;;11.00;99.90;;;;;;5059174;28;20209;-78
2023/11/15 07:38:16;;;;;;;0.30;0.30;;;11.10;99.90;;;;;;5058186;28;20209;-78
2023/11/15 07:40:42;;;;;;;0.10;0.10;;;11.30;99.90;;;;;;5060262;28;20236;-78
2023/11/15 07:43:10;;;;;;;0.10;0.10;;;11.50;99.90;;;;;;5060630;28;20204;-78
2023/11/15 07:45:36;;;;;;;0.10;0.10;;;11.60;99.90;;;;;;5060462;28;20304;-78
2023/11/15 07:48:10;;;;;;;0.10;0.10;;;11.70;99.90;;;;;;5058492;28;20181;-78
2023/11/15 07:50:36;;;;;;;0.10;0.10;;;11.90;99.90;;;;;;5060690;28;21124;-79
2023/11/15 07:53:01;;;;;;;0.00;0.00;;;12.00;99.90;;;;;;5055553;28;20190;-78
2023/11/15 07:55:27;;;;;;;0.10;0.10;;;12.00;99.90;;;;;;5056169;28;20313;-78
2023/11/15 07:57:53;;;;;;;0.10;0.10;;;12.10;99.90;;;;;;5054468;28;20205;-78
2023/11/15 08:00:22;;;;;;;0.10;0.10;;;12.10;99.90;;;;;;5057639;28;20212;-79
2023/11/15 08:02:52;;;;;;;0.10;0.10;;;12.10;99.90;;;;;;5056412;28;20169;-79
2023/11/15 08:05:22;;;;;;;0.03;0.03;;;12.10;99.90;;;;;;5056141;28;20280;-78
2023/11/15 08:07:48;;;;;;;0.10;0.10;;;11.90;99.90;;;;;;5057204;28;20205;-78
2023/11/15 08:10:14;;;;;;;0.10;0.10;;;11.90;99.90;;;;;;5056720;28;20198;-78
2023/11/15 08:12:44;;;;;;;0.00;0.00;;;11.80;99.90;;;;;;5057548;28;20193;-78
2023/11/15 08:15:15;;;;;;;0.03;0.03;;;11.70;99.90;;;;;;5052570;28;20198;-79
2023/11/15 08:17:41;;;;;;;0.00;0.00;;;11.70;99.90;;;;;;5054297;28;20263;-78
2023/11/15 08:20:11;;;;;;;0.10;0.10;;;11.80;99.90;;;;;;5055450;28;20186;-79
2023/11/15 08:22:37;;;;;;;0.10;0.10;;;11.90;99.90;;;;;;5055448;28;20200;-79
2023/11/15 08:25:09;;;;;;;0.10;0.10;;;12.00;99.90;;;;;;5055548;28;20195;-79
2023/11/15 08:27:40;;;;;;;0.10;0.10;;;12.10;99.90;;;;;;5059422;28;20333;-79
2023/11/15 08:30:12;;;;;;;0.10;0.10;;;12.20;99.90;;;;;;5056407;28;20193;-79
2023/11/15 08:32:41;;;;;;;0.10;0.10;;;12.40;99.90;;;;;;5055997;28;20196;-79
2023/11/15 08:35:09;;;;;;;0.10;0.10;;;12.50;99.90;;;;;;5054851;28;20207;-79
2023/11/15 08:37:35;;;;;;;1.20;1.20;;;12.60;99.90;;;;;;5056380;28;20206;-80
2023/11/15 08:40:01;;;;;;;0.10;0.10;;;12.60;99.90;;;;;;5057346;28;20842;-79
2023/11/15 08:42:26;;;;;;;0.10;0.10;;;12.60;99.90;;;;;;5057156;28;20276;-79
2023/11/15 08:44:53;;;;;;;0.10;0.10;;;12.70;99.90;;;;;;5052767;28;20226;-81
2023/11/15 08:47:21;;;;;;;0.10;0.10;;;12.80;99.90;;;;;;5048150;28;20689;-79
2023/11/15 08:49:50;;;;;;;0.10;0.10;;;12.80;99.90;;;;;;5053523;28;20231;-79
2023/11/15 08:52:18;;;;;;;0.10;0.10;;;12.80;99.90;;;;;;5054002;28;20260;-78
2023/11/15 08:54:45;;;;;;;0.10;0.10;;;13.00;99.90;;;;;;5056249;28;20185;-78
2023/11/15 08:57:14;;;;;;;0.10;0.10;;;12.90;99.90;;;;;;5057398;28;20197;-79
2023/11/15 08:59:39;;;;;;;0.10;0.10;;;13.00;99.90;;;;;;5055761;28;20656;-78
2023/11/15 09:02:05;;;;;;;0.10;0.10;;;13.00;99.90;;;;;;5054805;28;20199;-78
2023/11/15 09:04:33;;;;;;;0.10;0.10;;;13.10;99.90;;;;;;5053878;28;20177;-78
2023/11/15 09:06:59;;;;;;;0.10;0.10;;;13.10;99.90;;;;;;5055870;28;20197;-79
2023/11/15 09:09:26;;;;;;;0.10;0.10;;;13.10;99.90;;;;;;5054833;28;20180;-78
2023/11/15 09:11:56;;;;;;;0.10;0.10;;;13.10;99.90;;;;;;5057342;28;20178;-78
2023/11/15 09:14:25;;;;;;;0.10;0.10;;;13.10;99.90;;;;;;5057790;28;20548;-80
2023/11/15 09:16:50;;;;;;;0.00;0.00;;;13.00;99.90;;;;;;5056665;28;20227;-80
2023/11/15 09:19:20;;;;;;;0.00;0.00;;;13.10;99.90;;;;;;5053463;28;20819;-79
2023/11/15 09:21:46;;;;;;;0.10;0.10;;;12.90;99.90;;;;;;5053597;28;20658;-79
2023/11/15 09:24:15;;;;;;;0.10;0.10;;;12.80;99.90;;;;;;5057706;28;20185;-78
2023/11/15 09:26:40;;;;;;;0.10;0.10;;;12.70;99.90;;;;;;5056342;28;20704;-79
2023/11/15 09:29:06;;;;;;;0.10;0.10;;;12.90;99.90;;;;;;5051741;28;20177;-79
2023/11/15 09:31:33;;;;;;;0.10;0.10;;;13.00;99.90;;;;;;5056828;28;20214;-79
2023/11/15 09:33:59;;;;;;;0.10;0.10;;;12.70;99.90;;;;;;5058316;28;20558;-79
2023/11/15 09:36:26;;;;;;;0.10;0.10;;;12.80;99.90;;;;;;5055108;28;21104;-79
2023/11/15 09:38:53;;;;;;;0.10;0.10;;;12.70;99.90;;;;;;5058555;28;20199;-79
2023/11/15 09:41:21;;;;;;;0.10;0.10;;;12.50;99.90;;;;;;5058299;28;20201;-78
2023/11/15 09:43:55;;;;;;;0.10;0.10;;;12.50;99.90;;;;;;5057669;28;20177;-79
2023/11/15 09:46:21;;;;;;;0.10;0.10;;;12.70;99.90;;;;;;5056515;28;20355;-79
2023/11/15 09:48:51;;;;;;;0.10;0.10;;;12.90;99.90;;;;;;5058888;28;20185;-78
2023/11/15 09:51:20;;;;;;;0.10;0.10;;;12.80;99.90;;;;;;5056672;28;20272;-79
2023/11/15 09:53:51;;;;;;;0.10;0.10;;;13.00;99.90;;;;;;5058858;28;20191;-78
2023/11/15 09:56:16;;;;;;;0.10;0.10;;;13.00;99.90;;;;;;5059879;28;20620;-78
2023/11/15 09:58:42;;;;;;;0.10;0.10;;;13.00;99.90;;;;;;5057235;28;20182;-79
2023/11/15 10:01:09;;;;;;;0.10;0.10;;;13.00;99.90;;;;;;5060420;28;20214;-80
2023/11/15 10:03:41;;;;;;;0.10;0.10;;;12.90;99.90;;;;;;5062704;28;20232;-80
2023/11/15 10:06:08;;;;;;;0.10;0.10;;;12.90;99.90;;;;;;5075308;28;20210;-80
2023/11/15 10:08:34;;;;;;;0.10;0.10;;;13.00;99.90;;;;;;5080133;28;20182;-80
2023/11/15 10:11:08;;;;;;;0.10;0.10;;;13.00;99.90;;;;;;5080017;28;20181;-80
2023/11/15 10:13:38;;;;;;;0.10;0.10;;;13.10;99.90;;;;;;5079426;28;20200;-80
2023/11/15 10:16:23;;;;;;;0.10;0.10;;;13.20;99.90;;;;;;5062636;28;20567;-80
2023/11/15 10:18:50;;;;;;;0.10;0.10;;;13.10;99.90;;;;;;5063312;28;20182;-79
2023/11/15 10:21:16;;;;;;;0.07;0.07;;;13.00;99.90;;;;;;5063789;28;20189;-80
2023/11/15 10:23:43;;;;;;;0.10;0.10;;;13.00;99.90;;;;;;5065242;28;20175;-80
2023/11/15 10:26:09;;;;;;;0.10;0.10;;;13.00;99.90;;;;;;5061949;28;20198;-80
2023/11/15 10:28:39;;;;;;;0.10;0.10;;;12.70;99.90;;;;;;5060412;28;20181;-80
2023/11/15 10:31:21;;;;;;;0.10;0.10;;;12.70;99.90;;;;;;5061392;28;20186;-80
2023/11/15 10:33:50;;;;;;;0.10;0.10;;;12.60;99.90;;;;;;5063176;28;20260;-80
2023/11/15 10:36:17;;;;;;;0.10;0.10;;;12.40;99.90;;;;;;5058989;28;20312;-80
2023/11/15 10:38:44;;;;;;;0.10;0.10;;;12.50;99.90;;;;;;5062490;28;20173;-80
2023/11/15 10:41:16;;;;;;;0.10;0.10;;;12.80;99.90;;;;;;5058289;28;20235;-80
2023/11/15 10:43:46;;;;;;;0.10;0.10;;;12.90;99.90;;;;;;5061557;28;20227;-80
2023/11/15 10:46:15;;;;;;;0.10;0.10;;;12.70;99.90;;;;;;5061736;28;20202;-80
2023/11/15 10:48:46;;;;;;;0.10;0.10;;;12.60;99.90;;;;;;5061452;28;20250;-79
2023/11/15 10:51:22;;;;;;;0.10;0.10;;;12.50;99.90;;;;;;5060288;28;20177;-80
2023/11/15 10:53:48;;;;;;;0.10;0.10;;;12.60;99.90;;;;;;5060409;28;20177;-80
2023/11/15 10:56:15;;;;;;;0.10;0.10;;;12.80;99.90;;;;;;5059580;28;20277;-80
2023/11/15 10:58:45;;;;;;;0.10;0.10;;;12.90;99.90;;;;;;5060707;28;20181;-80
2023/11/15 11:01:19;;;;;;;0.10;0.10;;;13.00;99.90;;;;;;5062617;28;20173;-80
2023/11/15 11:03:49;;;;;;;0.10;0.10;;;13.20;99.90;;;;;;5059417;28;20173;-80
2023/11/15 11:06:25;;;;;;;0.10;0.10;;;13.40;99.90;;;;;;5061339;28;20703;-80
2023/11/15 11:09:02;;;;;;;0.10;0.10;;;13.30;99.90;;;;;;5060864;28;20662;-79
2023/11/15 11:11:44;;;;;;;0.10;0.10;;;13.30;99.90;;;;;;5058750;28;20255;-80
2023/11/15 11:14:18;;;;;;;0.10;0.10;;;13.40;99.90;;;;;;5060494;28;20208;-80
2023/11/15 11:16:45;;;;;;;0.10;0.10;;;13.40;99.90;;;;;;5058511;28;20228;-79
2023/11/15 11:19:21;;;;;;;0.10;0.10;;;13.40;99.90;;;;;;5059445;28;20177;-80
2023/11/15 11:22:02;;;;;;;0.10;0.10;;;13.50;99.90;;;;;;5058447;28;20182;-80
2023/11/15 11:24:33;;;;;;;0.10;0.10;;;13.90;99.90;;;;;;5059481;28;20181;-80
2023/11/15 11:27:21;;;;;;;0.10;0.10;;;14.00;99.90;;;;;;5058515;28;20204;-80
2023/11/15 11:30:00;;;;;;;0.10;0.10;;;14.10;99.90;;;;;;5058942;28;20539;-79
2023/11/15 11:32:27;;;;;;;0.10;0.10;;;14.10;99.90;;;;;;5058832;28;20175;-78
2023/11/15 11:35:07;;;;;;;0.10;0.10;;;14.00;99.90;;;;;;5055545;28;20176;-79
2023/11/15 11:37:55;;;;;;;0.10;0.10;;;13.90;99.90;;;;;;5057646;28;20208;-79
2023/11/15 11:40:24;;;;;;;0.10;0.10;;;13.80;99.90;;;;;;5058649;28;20233;-79
2023/11/15 11:42:54;;;;;;;0.10;0.10;;;13.70;99.90;;;;;;5058301;28;20674;-79
2023/11/15 11:45:23;;;;;;;0.00;0.00;;;13.60;99.90;;;;;;5061451;28;20180;-79
2023/11/15 11:47:48;;;;;;;0.10;0.10;;;13.50;99.90;;;;;;5059526;28;20204;-78
2023/11/15 11:50:24;;;;;;;0.23;0.23;;;13.60;99.90;;;;;;5057516;28;20252;-79
2023/11/15 11:53:08;;;;;;;0.10;0.10;;;13.80;99.90;;;;;;5058961;28;20202;-79
2023/11/15 11:55:33;;;;;;;0.10;0.10;;;13.90;99.90;;;;;;5057433;28;20272;-79
2023/11/15 11:58:02;;;;;;;0.10;0.10;;;14.10;99.90;;;;;;5058092;28;20203;-79
2023/11/15 12:00:28;;;;;;;0.10;0.10;;;14.30;99.90;;;;;;5058559;28;20179;-79
2023/11/15 12:02:53;;;;;;;0.10;0.10;;;14.30;99.90;;;;;;5059487;28;20179;-79
2023/11/15 12:05:24;;;;;;;0.10;0.10;;;14.30;99.90;;;;;;5057357;28;20301;-79
2023/11/15 12:07:54;;;;;;;0.10;0.10;;;14.30;99.90;;;;;;5058466;28;20218;-79
2023/11/15 12:10:20;;;;;;;0.10;0.10;;;14.50;99.90;;;;;;5074262;28;20186;-79
2023/11/15 12:13:04;;;;;;;0.10;0.10;;;14.90;99.90;;;;;;5059797;28;20203;-79
2023/11/15 12:15:31;;;;;;;0.10;0.10;;;15.20;99.90;;;;;;5057804;28;20281;-79
2023/11/15 12:17:58;;;;;;;0.10;0.10;;;15.20;99.90;;;;;;5059567;28;20243;-80
2023/11/15 12:20:41;;;;;;;0.10;0.10;;;15.00;99.90;;;;;;5072050;28;20215;-80
2023/11/15 12:23:12;;;;;;;0.10;0.10;;;14.90;99.90;;;;;;5070661;28;20340;-80
2023/11/15 12:25:49;;;;;;;0.10;0.10;;;14.90;99.90;;;;;;5058775;28;20203;-79
2023/11/15 12:28:15;;;;;;;0.10;0.10;;;14.60;99.90;;;;;;5059159;28;20303;-79
2023/11/15 12:30:43;;;;;;;0.10;0.10;;;14.40;99.90;;;;;;5058654;28;20564;-79
2023/11/15 12:33:10;;;;;;;0.10;0.10;;;14.30;99.90;;;;;;5055739;28;20252;-78
2023/11/15 12:35:40;;;;;;;0.00;0.00;;;14.40;99.90;;;;;;5057863;28;20222;-79
2023/11/15 12:38:08;;;;;;;0.10;0.10;;;14.50;99.90;;;;;;5056224;28;20217;-79
2023/11/15 12:40:34;;;;;;;0.10;0.10;;;14.40;99.90;;;;;;5058383;28;20268;-79
2023/11/15 12:43:32;;;;;;;0.10;0.10;;;14.20;99.90;;;;;;5060351;28;20269;-79
2023/11/15 12:45:59;;;;;;;0.10;0.10;;;14.30;99.90;;;;;;5008779;28;20222;-79
2023/11/15 12:48:25;;;;;;;0.10;0.10;;;14.40;99.90;;;;;;5058467;28;20190;-79
2023/11/15 12:50:59;;;;;;;0.10;0.10;;;14.60;99.90;;;;;;5057997;28;20776;-79